createdAt,value
2023-05-21T00:01:26.486Z,6.20
2023-05-21T00:04:15.781Z,6.25
2023-05-21T00:07:05.185Z,6.78
2023-05-21T00:09:53.000Z,5.93
2023-05-21T00:12:41.795Z,6.85
2023-05-21T00:15:29.962Z,5.95
2023-05-21T00:18:18.292Z,6.05
2023-05-21T00:21:06.765Z,6.00
2023-05-21T00:23:56.895Z,6.20
2023-05-21T00:26:44.884Z,6.45
2023-05-21T00:29:32.697Z,6.13
2023-05-21T00:32:20.476Z,6.38
2023-05-21T00:35:09.425Z,5.78
2023-05-21T00:37:57.510Z,6.28
2023-05-21T00:40:46.634Z,7.20
2023-05-21T00:43:34.485Z,5.80
2023-05-21T00:46:23.173Z,6.18
2023-05-21T00:49:11.776Z,5.50
2023-05-21T00:52:01.637Z,6.88
2023-05-21T00:54:50.899Z,6.90
2023-05-21T00:57:41.404Z,6.07
2023-05-21T01:00:29.430Z,5.75
2023-05-21T01:03:17.548Z,6.68
2023-05-21T01:06:06.314Z,6.55
2023-05-21T01:08:56.323Z,5.85
2023-05-21T01:11:47.731Z,5.60
2023-05-21T01:14:38.642Z,6.75
2023-05-21T01:17:27.697Z,5.55
2023-05-21T01:20:18.356Z,5.63
2023-05-21T01:23:07.801Z,6.15
2023-05-21T01:25:55.702Z,6.40
2023-05-21T01:28:43.483Z,5.95
2023-05-21T01:31:39.149Z,6.63
2023-05-21T01:34:33.955Z,5.90
2023-05-21T01:37:27.627Z,6.40
2023-05-21T01:40:24.643Z,6.15
2023-05-21T01:43:13.946Z,6.75
2023-05-21T01:46:02.999Z,6.03
2023-05-21T01:48:52.281Z,6.32
2023-05-21T01:51:40.384Z,7.38
2023-05-21T01:54:27.978Z,7.47
2023-05-21T01:57:17.335Z,6.07
2023-05-21T02:00:06.327Z,6.72
2023-05-21T02:02:54.121Z,6.38
2023-05-21T02:05:42.082Z,6.57
2023-05-21T02:08:29.788Z,6.72
2023-05-21T02:11:17.614Z,6.55
2023-05-21T02:14:08.087Z,5.70
2023-05-21T02:16:56.837Z,7.05
2023-05-21T02:19:44.926Z,6.05
2023-05-21T02:22:32.688Z,6.40
2023-05-21T02:25:20.877Z,6.57
2023-05-21T02:28:08.630Z,6.47
2023-05-21T02:30:58.177Z,8.02
2023-05-21T02:33:46.414Z,7.15
2023-05-21T02:36:36.212Z,6.30
2023-05-21T02:39:23.923Z,6.40
2023-05-21T02:42:11.757Z,5.78
2023-05-21T02:44:59.511Z,6.40
2023-05-21T02:47:48.653Z,6.63
2023-05-21T02:50:36.351Z,6.55
2023-05-21T02:53:24.022Z,6.45
2023-05-21T02:56:12.647Z,7.05
2023-05-21T02:59:00.576Z,5.82
2023-05-21T03:01:48.288Z,5.35
2023-05-21T03:04:39.188Z,7.43
2023-05-21T03:07:27.082Z,6.60
2023-05-21T03:10:14.844Z,6.80
2023-05-21T03:13:05.684Z,7.07
2023-05-21T03:15:56.662Z,6.50
2023-05-21T03:18:44.377Z,6.45
2023-05-21T03:21:33.868Z,6.10
2023-05-21T03:24:21.589Z,7.43
2023-05-21T03:27:09.454Z,5.95
2023-05-21T03:29:57.691Z,6.22
2023-05-21T03:32:46.039Z,7.25
2023-05-21T03:35:34.291Z,7.22
2023-05-21T03:38:23.420Z,7.00
2023-05-21T03:41:11.946Z,6.20
2023-05-21T03:43:59.684Z,6.70
2023-05-21T03:46:47.439Z,6.60
2023-05-21T03:49:35.154Z,6.65
2023-05-21T03:52:23.011Z,6.97
2023-05-21T03:55:12.539Z,5.45
2023-05-21T03:58:00.539Z,6.88
2023-05-21T04:00:48.385Z,7.85
2023-05-21T04:03:37.965Z,6.55
2023-05-21T04:06:28.119Z,6.88
2023-05-21T04:09:16.510Z,8.43
2023-05-21T04:12:06.305Z,8.65
2023-05-21T04:14:54.008Z,9.98
2023-05-21T04:17:41.787Z,8.85
2023-05-21T04:20:29.701Z,7.93
2023-05-21T04:23:17.659Z,8.82
2023-05-21T04:26:05.839Z,8.23
2023-05-21T04:28:59.434Z,8.40
2023-05-21T04:31:47.149Z,8.53
2023-05-21T04:34:34.950Z,9.57
2023-05-21T04:37:24.696Z,8.38
2023-05-21T04:40:18.246Z,9.07
2023-05-21T04:43:06.030Z,8.23
2023-05-21T04:45:55.653Z,9.25
2023-05-21T04:48:43.431Z,9.90
2023-05-21T04:51:31.305Z,9.48
2023-05-21T04:54:19.022Z,12.02
2023-05-21T04:57:07.340Z,12.68
2023-05-21T04:59:55.225Z,9.65
2023-05-21T05:02:44.427Z,11.13
2023-05-21T05:05:32.229Z,13.88
2023-05-21T05:08:19.913Z,11.43
2023-05-21T05:11:07.569Z,13.40
2023-05-21T05:13:55.352Z,13.00
2023-05-21T05:16:43.095Z,12.13
2023-05-21T05:19:32.549Z,8.65
2023-05-21T05:22:20.351Z,9.52
2023-05-21T05:25:08.598Z,9.95
2023-05-21T05:27:56.349Z,10.70
2023-05-21T05:30:44.168Z,10.80
2023-05-21T05:33:31.947Z,12.32
2023-05-21T05:36:21.255Z,11.77
2023-05-21T05:39:08.978Z,12.85
2023-05-21T05:41:56.664Z,12.23
2023-05-21T05:44:44.387Z,12.40
2023-05-21T05:47:33.434Z,13.20
2023-05-21T05:50:21.301Z,13.05
2023-05-21T05:53:13.246Z,13.07
2023-05-21T05:56:01.223Z,12.43
2023-05-21T05:58:48.942Z,13.70
2023-05-21T06:01:36.672Z,11.15
2023-05-21T06:04:24.457Z,12.88
2023-05-21T06:07:12.202Z,11.63
2023-05-21T06:10:01.327Z,11.48
2023-05-21T06:12:49.331Z,11.02
2023-05-21T06:15:37.186Z,10.20
2023-05-21T06:18:25.115Z,12.30
2023-05-21T06:21:12.889Z,10.65
2023-05-21T06:24:01.085Z,10.63
2023-05-21T06:26:50.170Z,10.85
2023-05-21T06:29:37.943Z,10.10
2023-05-21T06:32:25.895Z,10.93
2023-05-21T06:35:13.711Z,9.13
2023-05-21T06:38:01.692Z,8.00
2023-05-21T06:40:49.640Z,8.63
2023-05-21T06:43:38.667Z,8.70
2023-05-21T06:46:26.427Z,9.18
2023-05-21T06:49:15.101Z,10.27
2023-05-21T06:52:03.277Z,9.63
2023-05-21T06:54:51.197Z,10.00
2023-05-21T06:57:39.684Z,9.10
2023-05-21T07:00:28.849Z,8.95
2023-05-21T07:03:17.422Z,8.80
2023-05-21T07:06:05.497Z,9.23
2023-05-21T07:08:53.209Z,10.15
2023-05-21T07:11:40.969Z,10.13
2023-05-21T07:14:28.692Z,9.38
2023-05-21T07:17:17.841Z,9.43
2023-05-21T07:20:07.801Z,9.73
2023-05-21T07:22:55.631Z,9.45
2023-05-21T07:25:43.511Z,10.10
2023-05-21T07:28:31.219Z,9.05
2023-05-21T07:31:19.015Z,8.70
2023-05-21T07:34:08.152Z,8.88
2023-05-21T07:36:55.929Z,9.88
2023-05-21T07:39:43.650Z,7.97
2023-05-21T07:42:32.167Z,8.48
2023-05-21T07:45:19.897Z,8.13
2023-05-21T07:48:08.177Z,7.90
2023-05-21T07:50:58.266Z,8.40
2023-05-21T07:53:45.986Z,8.60
2023-05-21T07:56:33.675Z,7.45
2023-05-21T07:59:21.388Z,9.35
2023-05-21T08:02:09.217Z,8.60
2023-05-21T08:04:57.761Z,7.78
2023-05-21T08:07:47.245Z,8.07
2023-05-21T08:10:35.048Z,8.15
2023-05-21T08:13:23.250Z,7.90
2023-05-21T08:16:11.476Z,6.75
2023-05-21T08:18:59.319Z,7.00
2023-05-21T08:21:47.745Z,7.07
2023-05-21T08:24:36.898Z,7.25
2023-05-21T08:27:24.610Z,6.72
2023-05-21T08:30:13.292Z,6.38
2023-05-21T08:33:01.349Z,6.75
2023-05-21T08:35:49.135Z,6.80
2023-05-21T08:38:36.863Z,6.63
2023-05-21T08:41:27.089Z,6.50
2023-05-21T08:44:15.630Z,6.57
2023-05-21T08:47:05.377Z,6.22
2023-05-21T08:49:54.229Z,6.68
2023-05-21T08:52:42.712Z,7.68
2023-05-21T08:55:32.615Z,5.95
2023-05-21T08:58:22.321Z,6.30
2023-05-21T09:01:11.742Z,6.57
2023-05-21T09:04:12.241Z,7.28
2023-05-21T09:07:08.405Z,6.65
2023-05-21T09:09:58.270Z,6.97
2023-05-21T09:12:48.442Z,6.30
2023-05-21T09:15:38.333Z,6.55
2023-05-21T09:18:27.599Z,6.85
2023-05-21T09:21:26.449Z,6.57
2023-05-21T09:24:15.151Z,6.75
2023-05-21T09:27:03.353Z,5.93
2023-05-21T09:29:51.112Z,6.47
2023-05-21T09:32:40.791Z,5.75
2023-05-21T09:35:28.759Z,6.28
2023-05-21T09:38:16.520Z,6.32
2023-05-21T09:41:06.840Z,6.22
2023-05-21T09:43:54.580Z,5.75
2023-05-21T09:46:42.764Z,5.32
2023-05-21T09:49:32.039Z,6.22
2023-05-21T09:52:26.199Z,6.20
2023-05-21T09:55:15.499Z,6.40
2023-05-21T09:58:04.753Z,5.72
2023-05-21T10:00:54.097Z,6.32
2023-05-21T10:03:43.106Z,6.13
2023-05-21T10:06:33.858Z,6.18
2023-05-21T10:09:22.457Z,6.88
2023-05-21T10:12:11.052Z,7.05
2023-05-21T10:15:02.321Z,6.78
2023-05-21T10:17:51.076Z,7.47
2023-05-21T10:20:39.326Z,6.32
2023-05-21T10:23:30.362Z,6.45
2023-05-21T10:26:19.655Z,6.50
2023-05-21T10:29:09.049Z,6.60
2023-05-21T10:31:57.530Z,6.18
2023-05-21T10:34:47.148Z,7.10
2023-05-21T10:37:35.267Z,5.55
2023-05-21T10:40:24.586Z,6.40
2023-05-21T10:43:35.198Z,7.30
2023-05-21T10:47:17.804Z,6.68
2023-05-21T10:50:30.142Z,6.32
2023-05-21T10:53:26.410Z,6.53
2023-05-21T10:56:24.196Z,6.43
2023-05-21T10:59:21.975Z,6.60
2023-05-21T11:02:12.663Z,6.18
2023-05-21T11:05:01.209Z,6.30
2023-05-21T11:07:56.275Z,7.13
2023-05-21T11:10:45.320Z,5.82
2023-05-21T11:13:49.367Z,5.65
2023-05-21T11:16:37.569Z,6.60
2023-05-21T11:19:36.015Z,6.18
2023-05-21T11:22:25.496Z,6.85
2023-05-21T11:25:13.647Z,6.43
2023-05-21T11:28:06.647Z,5.03
2023-05-21T11:31:24.622Z,5.50
2023-05-21T11:34:16.415Z,6.93
2023-05-21T11:37:30.048Z,6.38
2023-05-21T11:40:26.065Z,6.25
2023-05-21T11:43:14.012Z,6.75
2023-05-21T11:46:02.096Z,5.95
2023-05-21T11:48:53.809Z,5.82
2023-05-21T11:51:42.049Z,6.45
2023-05-21T11:54:34.292Z,5.88
2023-05-21T11:57:22.978Z,6.30
2023-05-21T12:00:16.453Z,5.80
2023-05-21T12:03:05.979Z,5.80
2023-05-21T12:05:55.282Z,6.22
2023-05-21T12:08:43.214Z,6.07
2023-05-21T12:11:31.240Z,7.57
2023-05-21T12:14:19.179Z,7.07
2023-05-21T12:17:08.117Z,6.30
2023-05-21T12:19:56.999Z,6.22
2023-05-21T12:22:46.662Z,7.15
2023-05-21T12:25:34.535Z,7.35
2023-05-21T12:28:22.595Z,6.13
2023-05-21T12:31:16.247Z,6.47
2023-05-21T12:34:04.039Z,6.27
2023-05-21T12:36:52.075Z,6.95
2023-05-21T12:39:42.001Z,6.97
2023-05-21T12:42:31.106Z,6.95
2023-05-21T12:45:21.100Z,6.80
2023-05-21T12:48:09.262Z,6.07
2023-05-21T12:51:00.224Z,5.88
2023-05-21T12:53:48.423Z,7.45
2023-05-21T12:56:46.865Z,6.85
2023-05-21T12:59:51.481Z,6.80
2023-05-21T13:02:41.697Z,6.13
2023-05-21T13:05:29.953Z,5.72
2023-05-21T13:08:17.898Z,6.15
2023-05-21T13:11:05.756Z,5.80
2023-05-21T13:13:54.764Z,5.03
2023-05-21T13:16:42.422Z,5.20
2023-05-21T13:19:30.335Z,6.30
2023-05-21T13:22:18.197Z,6.05
2023-05-21T13:25:07.099Z,6.72
2023-05-21T13:27:55.353Z,5.32
2023-05-21T13:30:44.429Z,5.60
2023-05-21T13:33:32.882Z,5.53
2023-05-21T13:36:20.740Z,6.95
2023-05-21T13:39:08.693Z,6.45
2023-05-21T13:41:56.372Z,5.32
2023-05-21T13:44:44.139Z,5.85
2023-05-21T13:47:33.653Z,4.32
2023-05-21T13:50:21.447Z,4.95
2023-05-21T13:53:09.591Z,5.20
2023-05-21T13:55:57.318Z,5.97
2023-05-21T13:58:46.037Z,6.60
2023-05-21T14:01:33.854Z,6.63
2023-05-21T14:04:23.154Z,6.32
2023-05-21T14:07:12.074Z,5.20
2023-05-21T14:09:59.790Z,5.57
2023-05-21T14:12:47.563Z,6.78
2023-05-21T14:15:35.655Z,5.43
2023-05-21T14:18:23.549Z,5.85
2023-05-21T14:21:12.958Z,5.65
2023-05-21T14:24:00.690Z,5.85
2023-05-21T14:26:48.436Z,5.18
2023-05-21T14:29:36.076Z,5.35
2023-05-21T14:32:23.970Z,6.53
2023-05-21T14:35:11.988Z,5.20
2023-05-21T14:38:01.088Z,9.05
2023-05-21T14:40:48.838Z,6.13
2023-05-21T14:43:36.750Z,5.60
2023-05-21T14:46:24.675Z,5.22
2023-05-21T14:49:13.373Z,5.45
2023-05-21T14:52:01.190Z,6.22
2023-05-21T14:54:50.325Z,5.68
2023-05-21T14:57:38.021Z,5.43
2023-05-21T15:00:25.851Z,6.35
2023-05-21T15:03:13.910Z,6.05
2023-05-21T15:06:01.729Z,5.38
2023-05-21T15:08:49.535Z,5.35
2023-05-21T15:11:39.866Z,5.63
2023-05-21T15:14:27.576Z,5.70
2023-05-21T15:17:15.334Z,5.70
2023-05-21T15:20:04.869Z,5.38
2023-05-21T15:22:56.910Z,5.65
2023-05-21T15:25:52.726Z,5.13
2023-05-21T15:28:41.752Z,4.85
2023-05-21T15:31:29.436Z,6.15
2023-05-21T15:34:18.128Z,5.28
2023-05-21T15:37:06.232Z,5.22
2023-05-21T15:39:54.158Z,5.50
2023-05-21T15:42:41.881Z,5.57
2023-05-21T15:45:30.951Z,6.47
2023-05-21T15:48:22.580Z,5.22
2023-05-21T15:51:10.404Z,5.60
2023-05-21T15:53:58.048Z,5.38
2023-05-21T15:56:47.841Z,5.88
2023-05-21T15:59:35.545Z,5.40
2023-05-21T16:02:24.668Z,5.18
2023-05-21T16:05:12.559Z,5.38
2023-05-21T16:08:00.397Z,4.93
2023-05-21T16:10:48.182Z,5.85
2023-05-21T16:13:35.912Z,5.50
2023-05-21T16:16:24.906Z,5.45
2023-05-21T16:19:14.205Z,5.03
2023-05-21T16:22:02.090Z,5.32
2023-05-21T16:24:49.802Z,5.50
2023-05-21T16:27:37.733Z,5.10
2023-05-21T16:30:25.444Z,5.03
2023-05-21T16:33:13.422Z,5.50
2023-05-21T16:36:02.826Z,5.32
2023-05-21T16:38:50.638Z,5.55
2023-05-21T16:41:38.376Z,5.90
2023-05-21T16:44:26.253Z,5.70
2023-05-21T16:47:14.158Z,5.22
2023-05-21T16:50:01.947Z,5.65
2023-05-21T16:52:51.064Z,5.55
2023-05-21T16:55:39.708Z,5.57
2023-05-21T16:58:27.723Z,5.78
2023-05-21T17:01:15.641Z,5.93
2023-05-21T17:04:03.709Z,7.00
2023-05-21T17:06:51.745Z,6.13
2023-05-21T17:09:40.901Z,7.30
2023-05-21T17:12:28.661Z,6.90
2023-05-21T17:15:16.409Z,6.10
2023-05-21T17:18:04.358Z,6.15
2023-05-21T17:20:52.077Z,6.15
2023-05-21T17:23:39.804Z,6.05
2023-05-21T17:26:28.976Z,6.40
2023-05-21T17:29:19.930Z,5.85
2023-05-21T17:32:08.085Z,5.95
2023-05-21T17:34:55.940Z,4.88
2023-05-21T17:37:43.679Z,5.50
2023-05-21T17:40:31.475Z,6.18
2023-05-21T17:43:20.685Z,6.40
2023-05-21T17:46:08.614Z,6.57
2023-05-21T17:48:56.500Z,5.82
2023-05-21T17:51:44.641Z,5.63
2023-05-21T17:54:32.653Z,6.10
2023-05-21T17:57:21.799Z,5.35
2023-05-21T18:00:12.147Z,5.93
2023-05-21T18:02:59.943Z,6.45
2023-05-21T18:05:47.783Z,6.55
2023-05-21T18:08:35.487Z,6.82
2023-05-21T18:11:24.324Z,6.70
2023-05-21T18:14:12.101Z,6.40
2023-05-21T18:17:01.634Z,6.35
2023-05-21T18:19:49.540Z,6.38
2023-05-21T18:22:37.450Z,7.00
2023-05-21T18:25:25.284Z,6.28
2023-05-21T18:28:13.072Z,7.38
2023-05-21T18:31:03.846Z,6.03
2023-05-21T18:33:53.290Z,7.00
2023-05-21T18:36:41.132Z,6.18
2023-05-21T18:39:29.186Z,6.95
2023-05-21T18:42:17.116Z,7.03
2023-05-21T18:45:08.789Z,5.93
2023-05-21T18:47:56.894Z,7.82
2023-05-21T18:50:46.399Z,6.55
2023-05-21T18:53:34.568Z,6.55
2023-05-21T18:56:22.934Z,5.70
2023-05-21T18:59:10.803Z,7.20
2023-05-21T19:01:58.667Z,6.03
2023-05-21T19:04:46.896Z,5.68
2023-05-21T19:07:36.370Z,6.05
2023-05-21T19:10:24.210Z,5.80
2023-05-21T19:13:12.105Z,5.70
2023-05-21T19:15:59.944Z,7.18
2023-05-21T19:18:48.008Z,5.22
2023-05-21T19:21:36.002Z,5.80
2023-05-21T19:24:25.514Z,6.47
2023-05-21T19:27:13.363Z,6.03
2023-05-21T19:30:01.338Z,6.50
2023-05-21T19:32:51.113Z,5.88
2023-05-21T19:35:39.186Z,6.18
2023-05-21T19:38:27.275Z,6.25
2023-05-21T19:41:16.640Z,5.72
2023-05-21T19:44:04.693Z,6.28
2023-05-21T19:46:52.683Z,6.00
2023-05-21T19:49:40.553Z,5.70
2023-05-21T19:52:28.337Z,6.35
2023-05-21T19:55:20.457Z,6.03
2023-05-21T19:58:13.379Z,6.13
2023-05-21T20:01:01.641Z,5.88
2023-05-21T20:03:49.767Z,7.13
2023-05-21T20:06:38.098Z,6.70
2023-05-21T20:09:28.632Z,6.57
2023-05-21T20:12:16.608Z,6.47
2023-05-21T20:15:08.183Z,7.13
2023-05-21T20:17:59.181Z,6.70
2023-05-21T20:20:47.400Z,7.80
2023-05-21T20:23:38.421Z,6.28
2023-05-21T20:26:27.184Z,7.28
2023-05-21T20:29:15.212Z,6.68
2023-05-21T20:32:04.569Z,6.47
2023-05-21T20:35:02.832Z,6.78
2023-05-21T20:37:52.650Z,6.72
2023-05-21T20:40:40.503Z,6.93
2023-05-21T20:43:28.360Z,6.13
2023-05-21T20:46:18.547Z,6.30
2023-05-21T20:49:08.170Z,7.28
2023-05-21T20:51:56.168Z,6.75
2023-05-21T20:54:46.633Z,6.93
2023-05-21T20:57:34.714Z,6.57
2023-05-21T21:00:22.745Z,6.22
2023-05-21T21:03:11.995Z,5.97
2023-05-21T21:06:02.061Z,7.30
2023-05-21T21:08:50.175Z,7.40
2023-05-21T21:11:37.964Z,7.03
2023-05-21T21:14:25.739Z,6.40
2023-05-21T21:17:13.501Z,6.97
2023-05-21T21:20:01.318Z,7.22
2023-05-21T21:22:51.694Z,8.55
2023-05-21T21:25:39.665Z,6.80
2023-05-21T21:28:27.459Z,7.13
2023-05-21T21:31:17.583Z,8.15
2023-05-21T21:34:05.547Z,7.68
2023-05-21T21:36:56.168Z,8.27
2023-05-21T21:39:45.229Z,7.03
2023-05-21T21:42:32.950Z,7.80
2023-05-21T21:45:20.995Z,7.70
2023-05-21T21:48:08.782Z,6.88
2023-05-21T21:50:56.955Z,7.70
2023-05-21T21:53:44.778Z,7.15
2023-05-21T21:56:33.856Z,7.70
2023-05-21T21:59:22.475Z,7.35
2023-05-21T22:02:10.204Z,6.47
2023-05-21T22:04:58.127Z,6.97
2023-05-21T22:07:47.099Z,7.07
2023-05-21T22:10:38.243Z,7.28
2023-05-21T22:13:29.891Z,7.82
2023-05-21T22:16:17.897Z,7.70
2023-05-21T22:19:05.860Z,7.68
2023-05-21T22:21:54.159Z,6.78
2023-05-21T22:24:42.120Z,6.63
2023-05-21T22:27:29.890Z,6.55
2023-05-21T22:30:19.289Z,7.40
2023-05-21T22:33:07.158Z,7.78
2023-05-21T22:35:54.754Z,7.40
2023-05-21T22:38:43.523Z,8.23
2023-05-21T22:41:31.383Z,7.07
2023-05-21T22:44:19.115Z,7.50
2023-05-21T22:47:09.514Z,8.07
2023-05-21T22:49:58.467Z,7.53
2023-05-21T22:52:46.201Z,7.00
2023-05-21T22:55:33.901Z,8.23
2023-05-21T22:58:21.645Z,8.25
2023-05-21T23:01:09.412Z,7.75
2023-05-21T23:03:58.534Z,8.05
2023-05-21T23:06:46.225Z,7.95
2023-05-21T23:09:33.959Z,7.53
2023-05-21T23:12:21.634Z,9.02
2023-05-21T23:15:10.887Z,8.40
2023-05-21T23:17:59.599Z,9.00
2023-05-21T23:20:48.748Z,9.02
2023-05-21T23:23:36.531Z,9.10
2023-05-21T23:26:25.706Z,9.70
2023-05-21T23:29:13.563Z,8.27
2023-05-21T23:32:01.950Z,9.27
2023-05-21T23:34:49.861Z,10.10
2023-05-21T23:37:39.029Z,9.68
2023-05-21T23:40:26.664Z,9.25
2023-05-21T23:43:14.383Z,9.88
2023-05-21T23:46:02.253Z,9.27
2023-05-21T23:48:50.036Z,8.48
2023-05-21T23:51:37.785Z,11.13
2023-05-21T23:54:26.890Z,9.68
2023-05-21T23:57:14.652Z,10.70
